sensor_id;sensor_type;location;lat;lon;timestamp;P1;durP1;ratioP1;P2;durP2;ratioP2
57593;SDS011;43423;46.510;6.686;2023-09-19T00:00:38;1.30;;;1.00;;
57593;SDS011;43423;46.510;6.686;2023-09-19T00:03:25;3.95;;;1.25;;
57593;SDS011;43423;46.510;6.686;2023-09-19T00:05:51;1.45;;;0.93;;
57593;SDS011;43423;46.510;6.686;2023-09-19T00:08:16;1.88;;;0.88;;
57593;SDS011;43423;46.510;6.686;2023-09-19T00:10:42;1.75;;;0.93;;
57593;SDS011;43423;46.510;6.686;2023-09-19T00:13:08;1.67;;;1.00;;
57593;SDS011;43423;46.510;6.686;2023-09-19T00:15:45;3.95;;;1.00;;
57593;SDS011;43423;46.510;6.686;2023-09-19T00:18:15;2.30;;;1.15;;
57593;SDS011;43423;46.510;6.686;2023-09-19T00:20:44;2.47;;;1.23;;
57593;SDS011;43423;46.510;6.686;2023-09-19T00:23:16;1.52;;;0.98;;
57593;SDS011;43423;46.510;6.686;2023-09-19T00:25:42;1.00;;;0.90;;
57593;SDS011;43423;46.510;6.686;2023-09-19T00:28:08;2.00;;;0.95;;
57593;SDS011;43423;46.510;6.686;2023-09-19T00:30:34;2.47;;;0.95;;
57593;SDS011;43423;46.510;6.686;2023-09-19T00:33:00;1.08;;;0.80;;
57593;SDS011;43423;46.510;6.686;2023-09-19T00:35:31;2.17;;;0.80;;
57593;SDS011;43423;46.510;6.686;2023-09-19T00:37:56;2.08;;;0.73;;
57593;SDS011;43423;46.510;6.686;2023-09-19T00:40:22;2.70;;;1.27;;
57593;SDS011;43423;46.510;6.686;2023-09-19T00:42:48;1.90;;;0.80;;
57593;SDS011;43423;46.510;6.686;2023-09-19T00:45:15;1.67;;;0.93;;
57593;SDS011;43423;46.510;6.686;2023-09-19T00:47:46;2.95;;;1.00;;
57593;SDS011;43423;46.510;6.686;2023-09-19T00:50:17;1.13;;;0.82;;
57593;SDS011;43423;46.510;6.686;2023-09-19T00:52:45;0.70;;;0.52;;
57593;SDS011;43423;46.510;6.686;2023-09-19T00:55:12;2.60;;;0.88;;
57593;SDS011;43423;46.510;6.686;2023-09-19T00:57:39;1.90;;;0.90;;
57593;SDS011;43423;46.510;6.686;2023-09-19T01:00:06;1.45;;;0.88;;
57593;SDS011;43423;46.510;6.686;2023-09-19T01:02:34;1.27;;;0.90;;
57593;SDS011;43423;46.510;6.686;2023-09-19T01:05:00;1.00;;;0.90;;
57593;SDS011;43423;46.510;6.686;2023-09-19T01:07:27;1.73;;;1.00;;
57593;SDS011;43423;46.510;6.686;2023-09-19T01:09:56;1.70;;;1.20;;
57593;SDS011;43423;46.510;6.686;2023-09-19T01:12:29;1.60;;;1.00;;
57593;SDS011;43423;46.510;6.686;2023-09-19T01:32:04;1.40;;;1.10;;
57593;SDS011;43423;46.510;6.686;2023-09-19T01:37:29;2.38;;;0.88;;
57593;SDS011;43423;46.510;6.686;2023-09-19T01:48:51;1.88;;;0.68;;
57593;SDS011;43423;46.510;6.686;2023-09-19T01:51:37;1.83;;;0.88;;
57593;SDS011;43423;46.510;6.686;2023-09-19T01:54:33;1.10;;;0.83;;
57593;SDS011;43423;46.510;6.686;2023-09-19T02:00:07;3.10;;;0.90;;
57593;SDS011;43423;46.510;6.686;2023-09-19T02:02:37;1.10;;;0.70;;
57593;SDS011;43423;46.510;6.686;2023-09-19T02:05:05;1.23;;;0.70;;
57593;SDS011;43423;46.510;6.686;2023-09-19T02:07:31;2.13;;;0.88;;
57593;SDS011;43423;46.510;6.686;2023-09-19T02:09:58;0.95;;;0.80;;
57593;SDS011;43423;46.510;6.686;2023-09-19T02:12:30;2.22;;;0.93;;
57593;SDS011;43423;46.510;6.686;2023-09-19T02:14:57;2.55;;;0.90;;
57593;SDS011;43423;46.510;6.686;2023-09-19T02:17:23;2.38;;;0.90;;
57593;SDS011;43423;46.510;6.686;2023-09-19T02:19:54;1.38;;;0.70;;
57593;SDS011;43423;46.510;6.686;2023-09-19T02:22:20;2.17;;;0.73;;
57593;SDS011;43423;46.510;6.686;2023-09-19T02:24:48;0.98;;;0.73;;
57593;SDS011;43423;46.510;6.686;2023-09-19T02:27:14;0.80;;;0.60;;
57593;SDS011;43423;46.510;6.686;2023-09-19T02:29:41;0.90;;;0.80;;
57593;SDS011;43423;46.510;6.686;2023-09-19T02:32:07;5.72;;;1.10;;
57593;SDS011;43423;46.510;6.686;2023-09-19T02:34:35;0.88;;;0.70;;
57593;SDS011;43423;46.510;6.686;2023-09-19T02:37:07;1.00;;;0.80;;
57593;SDS011;43423;46.510;6.686;2023-09-19T02:39:34;1.25;;;0.75;;
57593;SDS011;43423;46.510;6.686;2023-09-19T02:42:00;0.88;;;0.80;;
57593;SDS011;43423;46.510;6.686;2023-09-19T02:44:26;1.10;;;0.82;;
57593;SDS011;43423;46.510;6.686;2023-09-19T02:46:52;1.00;;;0.90;;
57593;SDS011;43423;46.510;6.686;2023-09-19T02:49:18;0.90;;;0.52;;
57593;SDS011;43423;46.510;6.686;2023-09-19T02:51:43;1.27;;;0.90;;
57593;SDS011;43423;46.510;6.686;2023-09-19T02:54:09;1.25;;;0.70;;
57593;SDS011;43423;46.510;6.686;2023-09-19T02:56:36;2.55;;;0.70;;
57593;SDS011;43423;46.510;6.686;2023-09-19T02:59:02;1.90;;;1.00;;
57593;SDS011;43423;46.510;6.686;2023-09-19T03:01:28;0.70;;;0.68;;
57593;SDS011;43423;46.510;6.686;2023-09-19T03:03:54;1.80;;;0.80;;
57593;SDS011;43423;46.510;6.686;2023-09-19T03:06:20;3.75;;;1.40;;
57593;SDS011;43423;46.510;6.686;2023-09-19T03:08:47;1.15;;;0.90;;
57593;SDS011;43423;46.510;6.686;2023-09-19T03:11:14;2.45;;;1.10;;
57593;SDS011;43423;46.510;6.686;2023-09-19T03:13:41;3.15;;;1.20;;
57593;SDS011;43423;46.510;6.686;2023-09-19T03:16:07;0.93;;;0.85;;
57593;SDS011;43423;46.510;6.686;2023-09-19T03:18:34;1.52;;;0.60;;
57593;SDS011;43423;46.510;6.686;2023-09-19T03:20:59;1.73;;;0.80;;
57593;SDS011;43423;46.510;6.686;2023-09-19T03:23:26;1.77;;;0.90;;
57593;SDS011;43423;46.510;6.686;2023-09-19T03:25:53;1.55;;;0.75;;
57593;SDS011;43423;46.510;6.686;2023-09-19T03:28:22;0.93;;;0.80;;
57593;SDS011;43423;46.510;6.686;2023-09-19T03:31:04;0.88;;;0.75;;
57593;SDS011;43423;46.510;6.686;2023-09-19T03:33:31;1.08;;;0.52;;
57593;SDS011;43423;46.510;6.686;2023-09-19T03:35:58;2.60;;;1.15;;
57593;SDS011;43423;46.510;6.686;2023-09-19T03:38:24;2.97;;;1.13;;
57593;SDS011;43423;46.510;6.686;2023-09-19T03:40:51;0.60;;;0.60;;
57593;SDS011;43423;46.510;6.686;2023-09-19T03:43:16;1.02;;;0.60;;
57593;SDS011;43423;46.510;6.686;2023-09-19T03:45:42;1.08;;;0.55;;
57593;SDS011;43423;46.510;6.686;2023-09-19T03:48:09;0.50;;;0.50;;
57593;SDS011;43423;46.510;6.686;2023-09-19T03:50:35;1.65;;;0.60;;
57593;SDS011;43423;46.510;6.686;2023-09-19T03:53:01;0.75;;;0.43;;
57593;SDS011;43423;46.510;6.686;2023-09-19T03:55:27;1.00;;;0.90;;
57593;SDS011;43423;46.510;6.686;2023-09-19T03:57:53;0.70;;;0.57;;
57593;SDS011;43423;46.510;6.686;2023-09-19T04:00:18;4.47;;;0.80;;
57593;SDS011;43423;46.510;6.686;2023-09-19T04:02:51;1.20;;;0.80;;
57593;SDS011;43423;46.510;6.686;2023-09-19T04:05:17;1.48;;;0.50;;
57593;SDS011;43423;46.510;6.686;2023-09-19T04:07:43;2.08;;;0.80;;
57593;SDS011;43423;46.510;6.686;2023-09-19T04:10:09;0.93;;;0.52;;
57593;SDS011;43423;46.510;6.686;2023-09-19T04:12:37;0.50;;;0.50;;
57593;SDS011;43423;46.510;6.686;2023-09-19T04:15:04;0.60;;;0.50;;
57593;SDS011;43423;46.510;6.686;2023-09-19T04:17:30;3.42;;;0.90;;
57593;SDS011;43423;46.510;6.686;2023-09-19T04:19:58;0.77;;;0.60;;
57593;SDS011;43423;46.510;6.686;2023-09-19T04:22:24;0.98;;;0.80;;
57593;SDS011;43423;46.510;6.686;2023-09-19T04:24:50;2.35;;;0.85;;
57593;SDS011;43423;46.510;6.686;2023-09-19T04:27:15;1.83;;;0.90;;
57593;SDS011;43423;46.510;6.686;2023-09-19T04:29:41;1.40;;;0.52;;
57593;SDS011;43423;46.510;6.686;2023-09-19T04:32:07;2.35;;;0.90;;
57593;SDS011;43423;46.510;6.686;2023-09-19T04:34:36;1.27;;;0.68;;
57593;SDS011;43423;46.510;6.686;2023-09-19T04:37:03;0.70;;;0.70;;
57593;SDS011;43423;46.510;6.686;2023-09-19T04:39:29;0.65;;;0.65;;
57593;SDS011;43423;46.510;6.686;2023-09-19T04:41:55;6.72;;;1.55;;
57593;SDS011;43423;46.510;6.686;2023-09-19T04:44:20;1.58;;;1.02;;
57593;SDS011;43423;46.510;6.686;2023-09-19T04:46:46;0.90;;;0.70;;
57593;SDS011;43423;46.510;6.686;2023-09-19T04:49:12;1.85;;;0.88;;
57593;SDS011;43423;46.510;6.686;2023-09-19T04:51:38;1.02;;;0.60;;
57593;SDS011;43423;46.510;6.686;2023-09-19T04:54:04;1.58;;;0.70;;
57593;SDS011;43423;46.510;6.686;2023-09-19T04:56:30;1.95;;;0.85;;
57593;SDS011;43423;46.510;6.686;2023-09-19T04:58:57;1.85;;;1.20;;
57593;SDS011;43423;46.510;6.686;2023-09-19T05:01:26;1.80;;;1.40;;
57593;SDS011;43423;46.510;6.686;2023-09-19T05:03:52;1.45;;;1.02;;
57593;SDS011;43423;46.510;6.686;2023-09-19T05:06:20;0.95;;;0.80;;
57593;SDS011;43423;46.510;6.686;2023-09-19T05:08:46;1.25;;;0.65;;
57593;SDS011;43423;46.510;6.686;2023-09-19T05:11:19;1.20;;;1.10;;
57593;SDS011;43423;46.510;6.686;2023-09-19T05:13:47;4.43;;;1.20;;
57593;SDS011;43423;46.510;6.686;2023-09-19T05:16:13;1.75;;;1.20;;
57593;SDS011;43423;46.510;6.686;2023-09-19T05:18:38;0.85;;;0.80;;
57593;SDS011;43423;46.510;6.686;2023-09-19T05:21:05;4.00;;;1.10;;
57593;SDS011;43423;46.510;6.686;2023-09-19T05:23:30;5.18;;;0.82;;
57593;SDS011;43423;46.510;6.686;2023-09-19T05:25:56;2.20;;;1.20;;
57593;SDS011;43423;46.510;6.686;2023-09-19T05:28:25;1.70;;;1.30;;
57593;SDS011;43423;46.510;6.686;2023-09-19T05:30:55;3.35;;;1.13;;
57593;SDS011;43423;46.510;6.686;2023-09-19T05:33:20;2.13;;;1.08;;
57593;SDS011;43423;46.510;6.686;2023-09-19T05:35:49;3.08;;;1.52;;
57593;SDS011;43423;46.510;6.686;2023-09-19T05:38:15;2.38;;;1.20;;
57593;SDS011;43423;46.510;6.686;2023-09-19T05:40:44;4.10;;;1.15;;
57593;SDS011;43423;46.510;6.686;2023-09-19T05:43:10;2.17;;;1.25;;
57593;SDS011;43423;46.510;6.686;2023-09-19T05:45:36;2.80;;;1.20;;
57593;SDS011;43423;46.510;6.686;2023-09-19T05:48:09;1.10;;;0.82;;
57593;SDS011;43423;46.510;6.686;2023-09-19T05:50:37;5.35;;;1.30;;
57593;SDS011;43423;46.510;6.686;2023-09-19T05:53:03;2.22;;;1.00;;
57593;SDS011;43423;46.510;6.686;2023-09-19T05:55:32;3.38;;;1.33;;
57593;SDS011;43423;46.510;6.686;2023-09-19T05:57:58;4.63;;;1.30;;
57593;SDS011;43423;46.510;6.686;2023-09-19T06:00:24;3.65;;;1.10;;
57593;SDS011;43423;46.510;6.686;2023-09-19T06:02:56;2.55;;;1.10;;
57593;SDS011;43423;46.510;6.686;2023-09-19T06:05:23;1.83;;;1.33;;
57593;SDS011;43423;46.510;6.686;2023-09-19T06:07:53;2.83;;;1.50;;
57593;SDS011;43423;46.510;6.686;2023-09-19T06:10:19;3.08;;;1.58;;
57593;SDS011;43423;46.510;6.686;2023-09-19T06:12:48;3.95;;;1.55;;
57593;SDS011;43423;46.510;6.686;2023-09-19T06:15:14;1.95;;;1.30;;
57593;SDS011;43423;46.510;6.686;2023-09-19T06:17:50;2.17;;;1.30;;
57593;SDS011;43423;46.510;6.686;2023-09-19T06:20:20;1.67;;;1.17;;
57593;SDS011;43423;46.510;6.686;2023-09-19T06:22:47;1.75;;;1.13;;
57593;SDS011;43423;46.510;6.686;2023-09-19T06:25:14;2.67;;;1.50;;
57593;SDS011;43423;46.510;6.686;2023-09-19T06:27:47;2.30;;;0.98;;
57593;SDS011;43423;46.510;6.686;2023-09-19T06:30:14;1.83;;;1.20;;
57593;SDS011;43423;46.510;6.686;2023-09-19T06:32:40;1.60;;;1.40;;
57593;SDS011;43423;46.510;6.686;2023-09-19T06:35:10;2.67;;;1.10;;
57593;SDS011;43423;46.510;6.686;2023-09-19T06:37:36;2.22;;;1.00;;
57593;SDS011;43423;46.510;6.686;2023-09-19T06:40:06;2.35;;;1.50;;
57593;SDS011;43423;46.510;6.686;2023-09-19T06:42:51;2.35;;;1.40;;
57593;SDS011;43423;46.510;6.686;2023-09-19T06:45:21;2.22;;;1.38;;
57593;SDS011;43423;46.510;6.686;2023-09-19T06:47:47;3.80;;;1.30;;
57593;SDS011;43423;46.510;6.686;2023-09-19T06:50:16;2.20;;;1.90;;
57593;SDS011;43423;46.510;6.686;2023-09-19T06:52:43;2.17;;;1.17;;
57593;SDS011;43423;46.510;6.686;2023-09-19T06:55:09;7.20;;;1.30;;
57593;SDS011;43423;46.510;6.686;2023-09-19T06:57:37;3.97;;;1.48;;
57593;SDS011;43423;46.510;6.686;2023-09-19T07:00:02;2.00;;;1.38;;
57593;SDS011;43423;46.510;6.686;2023-09-19T07:02:34;3.03;;;1.42;;
57593;SDS011;43423;46.510;6.686;2023-09-19T07:05:00;4.53;;;1.23;;
57593;SDS011;43423;46.510;6.686;2023-09-19T07:07:26;3.40;;;1.50;;
57593;SDS011;43423;46.510;6.686;2023-09-19T07:09:51;1.90;;;1.33;;
57593;SDS011;43423;46.510;6.686;2023-09-19T07:12:19;3.28;;;1.30;;
57593;SDS011;43423;46.510;6.686;2023-09-19T07:14:45;4.35;;;1.23;;
57593;SDS011;43423;46.510;6.686;2023-09-19T07:17:10;3.88;;;1.50;;
57593;SDS011;43423;46.510;6.686;2023-09-19T07:19:37;1.38;;;1.23;;
57593;SDS011;43423;46.510;6.686;2023-09-19T07:22:02;5.38;;;1.55;;
57593;SDS011;43423;46.510;6.686;2023-09-19T07:24:28;2.30;;;1.15;;
57593;SDS011;43423;46.510;6.686;2023-09-19T07:26:54;1.88;;;1.10;;
57593;SDS011;43423;46.510;6.686;2023-09-19T07:29:19;2.72;;;1.30;;
57593;SDS011;43423;46.510;6.686;2023-09-19T07:31:45;2.58;;;1.17;;
57593;SDS011;43423;46.510;6.686;2023-09-19T07:34:11;3.25;;;1.40;;
57593;SDS011;43423;46.510;6.686;2023-09-19T07:36:37;2.65;;;1.27;;
57593;SDS011;43423;46.510;6.686;2023-09-19T07:39:03;1.50;;;1.15;;
57593;SDS011;43423;46.510;6.686;2023-09-19T07:41:32;3.95;;;1.13;;
57593;SDS011;43423;46.510;6.686;2023-09-19T07:43:58;1.10;;;1.00;;
57593;SDS011;43423;46.510;6.686;2023-09-19T07:46:23;2.45;;;0.90;;
57593;SDS011;43423;46.510;6.686;2023-09-19T07:48:51;1.42;;;1.08;;
57593;SDS011;43423;46.510;6.686;2023-09-19T07:51:17;1.38;;;0.70;;
57593;SDS011;43423;46.510;6.686;2023-09-19T07:53:43;1.63;;;1.13;;
57593;SDS011;43423;46.510;6.686;2023-09-19T07:56:09;4.78;;;1.17;;
57593;SDS011;43423;46.510;6.686;2023-09-19T07:58:35;6.65;;;1.42;;
57593;SDS011;43423;46.510;6.686;2023-09-19T08:01:06;3.13;;;1.10;;
57593;SDS011;43423;46.510;6.686;2023-09-19T08:03:33;1.25;;;1.00;;
57593;SDS011;43423;46.510;6.686;2023-09-19T08:06:02;1.25;;;0.93;;
57593;SDS011;43423;46.510;6.686;2023-09-19T08:08:28;2.70;;;1.17;;
57593;SDS011;43423;46.510;6.686;2023-09-19T08:10:54;3.42;;;1.02;;
57593;SDS011;43423;46.510;6.686;2023-09-19T08:13:25;1.10;;;1.00;;
57593;SDS011;43423;46.510;6.686;2023-09-19T08:15:51;1.38;;;0.90;;
57593;SDS011;43423;46.510;6.686;2023-09-19T08:18:18;1.10;;;0.90;;
57593;SDS011;43423;46.510;6.686;2023-09-19T08:20:51;2.10;;;0.77;;
57593;SDS011;43423;46.510;6.686;2023-09-19T08:23:17;0.68;;;0.38;;
57593;SDS011;43423;46.510;6.686;2023-09-19T08:25:45;1.35;;;0.60;;
57593;SDS011;43423;46.510;6.686;2023-09-19T08:28:11;2.83;;;0.43;;
57593;SDS011;43423;46.510;6.686;2023-09-19T08:30:39;2.38;;;0.55;;
57593;SDS011;43423;46.510;6.686;2023-09-19T08:33:06;1.65;;;0.40;;
57593;SDS011;43423;46.510;6.686;2023-09-19T08:35:32;0.68;;;0.68;;
57593;SDS011;43423;46.510;6.686;2023-09-19T08:37:58;0.77;;;0.50;;
57593;SDS011;43423;46.510;6.686;2023-09-19T08:40:29;0.40;;;0.40;;
57593;SDS011;43423;46.510;6.686;2023-09-19T08:42:59;0.63;;;0.43;;
57593;SDS011;43423;46.510;6.686;2023-09-19T08:45:26;0.77;;;0.40;;
57593;SDS011;43423;46.510;6.686;2023-09-19T08:48:14;1.20;;;0.40;;
57593;SDS011;43423;46.510;6.686;2023-09-19T08:50:49;0.52;;;0.32;;
57593;SDS011;43423;46.510;6.686;2023-09-19T08:53:27;1.30;;;0.40;;
57593;SDS011;43423;46.510;6.686;2023-09-19T08:55:57;0.57;;;0.30;;
57593;SDS011;43423;46.510;6.686;2023-09-19T08:58:29;0.20;;;0.20;;
57593;SDS011;43423;46.510;6.686;2023-09-19T09:01:00;0.40;;;0.35;;
57593;SDS011;43423;46.510;6.686;2023-09-19T09:03:29;0.47;;;0.47;;
57593;SDS011;43423;46.510;6.686;2023-09-19T09:05:59;2.30;;;0.77;;
57593;SDS011;43423;46.510;6.686;2023-09-19T09:08:25;0.85;;;0.20;;
57593;SDS011;43423;46.510;6.686;2023-09-19T09:10:51;0.55;;;0.40;;
57593;SDS011;43423;46.510;6.686;2023-09-19T09:13:17;0.70;;;0.40;;
57593;SDS011;43423;46.510;6.686;2023-09-19T09:15:43;0.50;;;0.40;;
57593;SDS011;43423;46.510;6.686;2023-09-19T09:18:10;0.60;;;0.50;;
57593;SDS011;43423;46.510;6.686;2023-09-19T09:20:35;0.60;;;0.50;;
57593;SDS011;43423;46.510;6.686;2023-09-19T09:23:01;1.92;;;0.50;;
57593;SDS011;43423;46.510;6.686;2023-09-19T09:28:26;0.73;;;0.50;;
57593;SDS011;43423;46.510;6.686;2023-09-19T09:30:54;0.50;;;0.50;;
57593;SDS011;43423;46.510;6.686;2023-09-19T09:33:20;0.77;;;0.32;;
57593;SDS011;43423;46.510;6.686;2023-09-19T09:35:50;0.40;;;0.40;;
57593;SDS011;43423;46.510;6.686;2023-09-19T09:38:21;0.85;;;0.70;;
57593;SDS011;43423;46.510;6.686;2023-09-19T09:40:57;0.30;;;0.30;;
57593;SDS011;43423;46.510;6.686;2023-09-19T09:43:30;1.58;;;0.50;;
57593;SDS011;43423;46.510;6.686;2023-09-19T09:51:39;1.17;;;0.47;;
57593;SDS011;43423;46.510;6.686;2023-09-19T09:54:17;1.88;;;0.50;;
57593;SDS011;43423;46.510;6.686;2023-09-19T09:57:00;0.40;;;0.40;;
57593;SDS011;43423;46.510;6.686;2023-09-19T10:02:43;2.20;;;0.55;;
57593;SDS011;43423;46.510;6.686;2023-09-19T10:05:19;2.72;;;0.80;;
57593;SDS011;43423;46.510;6.686;2023-09-19T10:07:49;1.13;;;0.50;;
57593;SDS011;43423;46.510;6.686;2023-09-19T10:10:34;0.40;;;0.30;;
57593;SDS011;43423;46.510;6.686;2023-09-19T10:13:08;0.60;;;0.40;;
57593;SDS011;43423;46.510;6.686;2023-09-19T10:15:39;0.50;;;0.50;;
57593;SDS011;43423;46.510;6.686;2023-09-19T10:18:16;0.43;;;0.40;;
57593;SDS011;43423;46.510;6.686;2023-09-19T10:20:46;0.88;;;0.50;;
57593;SDS011;43423;46.510;6.686;2023-09-19T10:23:14;0.30;;;0.30;;
57593;SDS011;43423;46.510;6.686;2023-09-19T10:25:46;2.10;;;0.50;;
57593;SDS011;43423;46.510;6.686;2023-09-19T10:28:13;1.50;;;0.70;;
57593;SDS011;43423;46.510;6.686;2023-09-19T10:30:44;0.68;;;0.40;;
57593;SDS011;43423;46.510;6.686;2023-09-19T10:33:12;0.50;;;0.40;;
57593;SDS011;43423;46.510;6.686;2023-09-19T10:35:46;0.70;;;0.70;;
57593;SDS011;43423;46.510;6.686;2023-09-19T10:38:14;0.77;;;0.57;;
57593;SDS011;43423;46.510;6.686;2023-09-19T10:43:15;0.30;;;0.30;;
57593;SDS011;43423;46.510;6.686;2023-09-19T10:45:45;0.65;;;0.50;;
57593;SDS011;43423;46.510;6.686;2023-09-19T10:48:20;0.93;;;0.50;;
57593;SDS011;43423;46.510;6.686;2023-09-19T10:50:51;0.45;;;0.45;;
57593;SDS011;43423;46.510;6.686;2023-09-19T10:53:24;0.65;;;0.57;;
57593;SDS011;43423;46.510;6.686;2023-09-19T10:55:56;0.55;;;0.50;;
57593;SDS011;43423;46.510;6.686;2023-09-19T10:58:28;0.32;;;0.32;;
57593;SDS011;43423;46.510;6.686;2023-09-19T11:01:00;2.70;;;0.50;;
57593;SDS011;43423;46.510;6.686;2023-09-19T11:03:30;0.63;;;0.52;;
57593;SDS011;43423;46.510;6.686;2023-09-19T11:06:30;1.58;;;0.55;;
57593;SDS011;43423;46.510;6.686;2023-09-19T11:08:52;2.00;;;0.70;;
57593;SDS011;43423;46.510;6.686;2023-09-19T11:14:15;0.75;;;0.43;;
57593;SDS011;43423;46.510;6.686;2023-09-19T11:33:29;1.63;;;0.60;;
57593;SDS011;43423;46.510;6.686;2023-09-19T11:39:31;0.80;;;0.65;;
57593;SDS011;43423;46.510;6.686;2023-09-19T11:41:58;0.85;;;0.65;;
57593;SDS011;43423;46.510;6.686;2023-09-19T11:49:17;1.02;;;0.63;;
57593;SDS011;43423;46.510;6.686;2023-09-19T11:51:52;1.30;;;0.60;;
57593;SDS011;43423;46.510;6.686;2023-09-19T11:54:17;1.13;;;0.82;;
57593;SDS011;43423;46.510;6.686;2023-09-19T11:56:44;1.13;;;0.63;;
57593;SDS011;43423;46.510;6.686;2023-09-19T11:59:19;1.83;;;0.70;;
57593;SDS011;43423;46.510;6.686;2023-09-19T12:01:51;0.68;;;0.50;;
57593;SDS011;43423;46.510;6.686;2023-09-19T12:04:38;1.20;;;0.60;;
57593;SDS011;43423;46.510;6.686;2023-09-19T12:09:40;1.33;;;0.70;;
57593;SDS011;43423;46.510;6.686;2023-09-19T12:12:18;2.17;;;0.68;;
57593;SDS011;43423;46.510;6.686;2023-09-19T12:14:48;0.60;;;0.60;;
57593;SDS011;43423;46.510;6.686;2023-09-19T12:17:14;0.82;;;0.70;;
57593;SDS011;43423;46.510;6.686;2023-09-19T12:19:49;0.70;;;0.52;;
57593;SDS011;43423;46.510;6.686;2023-09-19T12:22:16;0.63;;;0.63;;
57593;SDS011;43423;46.510;6.686;2023-09-19T12:24:43;0.57;;;0.57;;
57593;SDS011;43423;46.510;6.686;2023-09-19T12:27:09;2.40;;;0.82;;
57593;SDS011;43423;46.510;6.686;2023-09-19T12:29:43;0.80;;;0.57;;
57593;SDS011;43423;46.510;6.686;2023-09-19T12:32:11;1.60;;;0.57;;
57593;SDS011;43423;46.510;6.686;2023-09-19T12:34:36;3.25;;;0.70;;
57593;SDS011;43423;46.510;6.686;2023-09-19T12:37:11;0.70;;;0.70;;
57593;SDS011;43423;46.510;6.686;2023-09-19T12:39:38;0.50;;;0.50;;
57593;SDS011;43423;46.510;6.686;2023-09-19T12:42:07;2.25;;;0.80;;
57593;SDS011;43423;46.510;6.686;2023-09-19T12:44:38;0.90;;;0.50;;
57593;SDS011;43423;46.510;6.686;2023-09-19T12:47:09;3.42;;;0.70;;
57593;SDS011;43423;46.510;6.686;2023-09-19T12:52:36;0.52;;;0.50;;
57593;SDS011;43423;46.510;6.686;2023-09-19T12:55:02;1.02;;;0.57;;
57593;SDS011;43423;46.510;6.686;2023-09-19T12:57:30;0.95;;;0.77;;
57593;SDS011;43423;46.510;6.686;2023-09-19T13:00:00;2.90;;;0.93;;
57593;SDS011;43423;46.510;6.686;2023-09-19T13:02:27;2.42;;;0.75;;
57593;SDS011;43423;46.510;6.686;2023-09-19T13:04:53;1.75;;;0.70;;
57593;SDS011;43423;46.510;6.686;2023-09-19T13:07:40;0.75;;;0.60;;
57593;SDS011;43423;46.510;6.686;2023-09-19T13:10:09;0.95;;;0.60;;
57593;SDS011;43423;46.510;6.686;2023-09-19T13:12:36;2.20;;;0.68;;
57593;SDS011;43423;46.510;6.686;2023-09-19T13:15:13;2.00;;;0.70;;
57593;SDS011;43423;46.510;6.686;2023-09-19T13:17:48;1.73;;;0.82;;
57593;SDS011;43423;46.510;6.686;2023-09-19T13:20:24;1.75;;;0.90;;
57593;SDS011;43423;46.510;6.686;2023-09-19T13:22:53;2.20;;;0.80;;
57593;SDS011;43423;46.510;6.686;2023-09-19T13:25:20;0.88;;;0.60;;
57593;SDS011;43423;46.510;6.686;2023-09-19T13:27:50;2.90;;;0.80;;
57593;SDS011;43423;46.510;6.686;2023-09-19T13:30:19;1.98;;;0.90;;
57593;SDS011;43423;46.510;6.686;2023-09-19T13:32:46;3.20;;;0.60;;
57593;SDS011;43423;46.510;6.686;2023-09-19T13:35:12;3.22;;;0.80;;
57593;SDS011;43423;46.510;6.686;2023-09-19T13:37:39;1.10;;;0.95;;
57593;SDS011;43423;46.510;6.686;2023-09-19T13:40:10;1.20;;;1.10;;
57593;SDS011;43423;46.510;6.686;2023-09-19T13:42:37;1.45;;;0.65;;
57593;SDS011;43423;46.510;6.686;2023-09-19T13:45:03;0.65;;;0.55;;
57593;SDS011;43423;46.510;6.686;2023-09-19T13:48:31;1.48;;;0.65;;
57593;SDS011;43423;46.510;6.686;2023-09-19T13:53:29;0.98;;;0.75;;
57593;SDS011;43423;46.510;6.686;2023-09-19T13:55:56;1.50;;;0.85;;
57593;SDS011;43423;46.510;6.686;2023-09-19T13:58:22;2.17;;;0.80;;
57593;SDS011;43423;46.510;6.686;2023-09-19T14:00:52;0.90;;;0.80;;
57593;SDS011;43423;46.510;6.686;2023-09-19T14:03:20;0.80;;;0.70;;
57593;SDS011;43423;46.510;6.686;2023-09-19T14:05:47;0.73;;;0.70;;
57593;SDS011;43423;46.510;6.686;2023-09-19T14:08:13;1.00;;;0.90;;
57593;SDS011;43423;46.510;6.686;2023-09-19T14:10:39;1.58;;;0.80;;
57593;SDS011;43423;46.510;6.686;2023-09-19T14:13:04;1.30;;;0.70;;
57593;SDS011;43423;46.510;6.686;2023-09-19T14:15:30;1.55;;;0.80;;
57593;SDS011;43423;46.510;6.686;2023-09-19T14:17:58;1.65;;;0.95;;
57593;SDS011;43423;46.510;6.686;2023-09-19T14:20:26;1.30;;;1.13;;
57593;SDS011;43423;46.510;6.686;2023-09-19T14:22:53;0.40;;;0.40;;
57593;SDS011;43423;46.510;6.686;2023-09-19T14:25:19;0.77;;;0.70;;
57593;SDS011;43423;46.510;6.686;2023-09-19T14:27:46;1.02;;;0.70;;
57593;SDS011;43423;46.510;6.686;2023-09-19T14:30:13;1.05;;;0.80;;
57593;SDS011;43423;46.510;6.686;2023-09-19T14:32:39;3.15;;;0.73;;
57593;SDS011;43423;46.510;6.686;2023-09-19T14:35:05;1.50;;;0.80;;
57593;SDS011;43423;46.510;6.686;2023-09-19T14:37:32;1.27;;;0.90;;
57593;SDS011;43423;46.510;6.686;2023-09-19T14:39:58;0.95;;;0.75;;
57593;SDS011;43423;46.510;6.686;2023-09-19T14:42:24;2.17;;;0.70;;
57593;SDS011;43423;46.510;6.686;2023-09-19T14:44:49;1.92;;;0.90;;
57593;SDS011;43423;46.510;6.686;2023-09-19T14:47:15;1.77;;;1.08;;
57593;SDS011;43423;46.510;6.686;2023-09-19T14:49:42;2.15;;;0.75;;
57593;SDS011;43423;46.510;6.686;2023-09-19T14:52:08;1.10;;;0.85;;
57593;SDS011;43423;46.510;6.686;2023-09-19T14:54:34;1.38;;;0.88;;
57593;SDS011;43423;46.510;6.686;2023-09-19T14:57:00;1.13;;;0.80;;
57593;SDS011;43423;46.510;6.686;2023-09-19T14:59:34;1.90;;;1.00;;
57593;SDS011;43423;46.510;6.686;2023-09-19T15:02:03;0.80;;;0.60;;
57593;SDS011;43423;46.510;6.686;2023-09-19T15:04:29;2.03;;;0.98;;
57593;SDS011;43423;46.510;6.686;2023-09-19T15:06:55;1.88;;;0.98;;
57593;SDS011;43423;46.510;6.686;2023-09-19T15:09:21;1.83;;;0.93;;
57593;SDS011;43423;46.510;6.686;2023-09-19T15:11:49;0.73;;;0.65;;
57593;SDS011;43423;46.510;6.686;2023-09-19T15:14:15;0.50;;;0.50;;
57593;SDS011;43423;46.510;6.686;2023-09-19T15:16:40;1.95;;;0.80;;
57593;SDS011;43423;46.510;6.686;2023-09-19T15:19:09;2.17;;;0.75;;
57593;SDS011;43423;46.510;6.686;2023-09-19T15:21:35;1.35;;;0.95;;
57593;SDS011;43423;46.510;6.686;2023-09-19T15:24:03;1.60;;;0.82;;
57593;SDS011;43423;46.510;6.686;2023-09-19T15:26:30;1.85;;;0.93;;
57593;SDS011;43423;46.510;6.686;2023-09-19T15:28:55;1.63;;;0.60;;
57593;SDS011;43423;46.510;6.686;2023-09-19T15:31:21;0.80;;;0.60;;
57593;SDS011;43423;46.510;6.686;2023-09-19T15:33:47;1.42;;;0.70;;
57593;SDS011;43423;46.510;6.686;2023-09-19T15:36:14;4.10;;;0.90;;
57593;SDS011;43423;46.510;6.686;2023-09-19T15:41:33;1.35;;;1.00;;
57593;SDS011;43423;46.510;6.686;2023-09-19T15:44:01;0.88;;;0.75;;
57593;SDS011;43423;46.510;6.686;2023-09-19T15:46:29;1.05;;;0.80;;
57593;SDS011;43423;46.510;6.686;2023-09-19T15:49:01;2.25;;;0.90;;
57593;SDS011;43423;46.510;6.686;2023-09-19T15:51:26;0.88;;;0.85;;
57593;SDS011;43423;46.510;6.686;2023-09-19T15:53:53;0.82;;;0.50;;
57593;SDS011;43423;46.510;6.686;2023-09-19T15:56:20;2.50;;;1.02;;
57593;SDS011;43423;46.510;6.686;2023-09-19T15:58:48;1.77;;;0.80;;
57593;SDS011;43423;46.510;6.686;2023-09-19T16:01:22;3.50;;;0.73;;
57593;SDS011;43423;46.510;6.686;2023-09-19T16:03:49;1.52;;;0.70;;
57593;SDS011;43423;46.510;6.686;2023-09-19T16:06:18;1.45;;;0.70;;
57593;SDS011;43423;46.510;6.686;2023-09-19T16:11:16;1.20;;;0.70;;
57593;SDS011;43423;46.510;6.686;2023-09-19T16:13:43;2.03;;;0.85;;
57593;SDS011;43423;46.510;6.686;2023-09-19T16:16:13;1.80;;;1.05;;
57593;SDS011;43423;46.510;6.686;2023-09-19T16:21:10;1.55;;;0.95;;
57593;SDS011;43423;46.510;6.686;2023-09-19T16:23:36;1.95;;;1.20;;
57593;SDS011;43423;46.510;6.686;2023-09-19T16:26:09;2.45;;;1.00;;